»·PEaware :: UAL576 KSEA-KAUS

UAL576 :: KSEA-KAUS

FLIGHT INFORMATION

Flight Status: Arrived
Operator:
United Airlines
More flights by this operator :: More flights under this callsign
Pilot: Anonymous 8274 (8274)
Aircraft: BOEING 737-200
(B732)
More flights by this aircraft type
Origin: KSEA Seattle-Tacoma Intl
United States
Destination: KAUS Austin Bergstrom Intl
United States
More flights between these airports :: More routes between these airports
Route: SUMMA2 BKE J54 PIH J20 FQF J17 ROOMY DCT LLO KALLA4
File this flight plan on PilotEdge
Remarks:
Altitude:
(Current/Filed)
31,000ft
Speed:
(Current/Filed)
442kts
Departed: 14-Nov-20 12:24 PM
Arrived: 14-Nov-20 03:55 PM
Distance/Time
Traveled:
1537nm/3:31
Distance/Time
To Go:
Arrived

Flight Plot

Page will automatically refresh every two minutes.

Flight plan parsing failed; only flown route is shown


Map Options




Map Legend


Flown Route
Filed Route
Departure Airport
Arrival Airport
Navaid (VOR, NDB)
Fix

Horizontal Profiles

Position Reports

Time Latitude Longitude Heading Altitude Ground
Speed
14-Nov-20 11:22 47.441541 -122.301352 45 478ft 0kts
14-Nov-20 11:23 47.441541 -122.301352 45 478ft 0kts
14-Nov-20 11:24 47.441541 -122.301352 45 478ft 0kts
14-Nov-20 11:25 47.441541 -122.301352 45 478ft 0kts
14-Nov-20 11:26 47.441541 -122.301352 45 478ft 0kts
14-Nov-20 11:27 47.441541 -122.301352 45 478ft 0kts
14-Nov-20 11:28 47.441541 -122.301352 45 478ft 0kts
14-Nov-20 11:29 47.441541 -122.301351 45 478ft 0kts
14-Nov-20 11:30 47.441541 -122.301351 45 478ft 0kts
14-Nov-20 11:31 47.441541 -122.301351 45 478ft 0kts
14-Nov-20 11:32 47.441541 -122.301351 45 478ft 0kts
14-Nov-20 11:33 47.441541 -122.301351 45 478ft 0kts
14-Nov-20 11:34 47.441541 -122.301351 45 478ft 0kts
14-Nov-20 11:35 47.441541 -122.301351 45 478ft 0kts
14-Nov-20 11:36 47.441541 -122.301351 45 478ft 0kts
14-Nov-20 11:37 47.441541 -122.301351 45 478ft 0kts
14-Nov-20 11:38 47.441541 -122.301351 45 478ft 0kts
14-Nov-20 11:39 47.441541 -122.301351 45 478ft 0kts
14-Nov-20 11:40 47.441541 -122.301351 45 478ft 0kts
14-Nov-20 11:41 47.441541 -122.301351 45 478ft 0kts
14-Nov-20 11:42 47.441541 -122.301351 45 478ft 0kts
14-Nov-20 11:43 47.441541 -122.301351 45 478ft 0kts
14-Nov-20 11:44 47.441541 -122.301351 45 478ft 0kts
14-Nov-20 11:45 47.441541 -122.301351 45 478ft 0kts
14-Nov-20 11:46 47.441541 -122.301351 45 478ft 0kts
14-Nov-20 11:47 47.441541 -122.301351 45 478ft 0kts
14-Nov-20 11:48 47.441541 -122.301351 45 478ft 0kts
14-Nov-20 11:49 47.441541 -122.301351 45 478ft 0kts
14-Nov-20 11:50 47.441541 -122.301351 45 478ft 0kts
14-Nov-20 11:51 47.441541 -122.301351 45 478ft 0kts
14-Nov-20 11:53 47.441541 -122.301351 45 478ft 0kts
14-Nov-20 11:54 47.441541 -122.301351 45 478ft 0kts
14-Nov-20 11:55 47.441541 -122.301351 45 478ft 0kts
14-Nov-20 11:56 47.441541 -122.301351 45 478ft 0kts
14-Nov-20 11:57 47.441541 -122.301351 45 478ft 0kts
14-Nov-20 11:58 47.441541 -122.301351 45 478ft 0kts
14-Nov-20 11:59 47.441541 -122.301351 45 478ft 0kts
14-Nov-20 12:00 47.441541 -122.301351 45 478ft 0kts
14-Nov-20 12:01 47.441541 -122.301351 45 478ft 0kts
14-Nov-20 12:02 47.441541 -122.301351 45 478ft 0kts
14-Nov-20 12:03 47.441541 -122.301351 45 478ft 0kts
14-Nov-20 12:04 47.441541 -122.301351 45 478ft 0kts
14-Nov-20 12:05 47.441541 -122.301351 45 478ft 0kts
14-Nov-20 12:06 47.441541 -122.301351 45 478ft 0kts
14-Nov-20 12:07 47.441541 -122.301351 45 478ft 0kts
14-Nov-20 12:08 47.441541 -122.301351 45 478ft 0kts
14-Nov-20 12:09 47.441541 -122.301351 45 478ft 0kts
14-Nov-20 12:09 47.441541 -122.301351 45 478ft 0kts
14-Nov-20 12:11 47.441544 -122.301348 45 478ft 0kts
14-Nov-20 12:12 47.441199 -122.301914 72 478ft 2kts
14-Nov-20 12:13 47.441460 -122.302499 173 478ft 0kts
14-Nov-20 12:14 47.441459 -122.302499 173 478ft 0kts
14-Nov-20 12:14 47.441459 -122.302499 173 478ft 0kts
14-Nov-20 12:16 47.440723 -122.302423 174 478ft 6kts
14-Nov-20 12:16 47.439926 -122.304648 265 478ft 7kts
14-Nov-20 12:18 47.439915 -122.304919 269 478ft 0kts
14-Nov-20 12:18 47.439915 -122.304919 269 478ft 0kts
14-Nov-20 12:19 47.439915 -122.304919 269 478ft 0kts
14-Nov-20 12:20 47.439915 -122.304919 269 478ft 0kts
14-Nov-20 12:21 47.439906 -122.305644 269 478ft 8kts
14-Nov-20 12:22 47.443497 -122.306335 0 478ft 28kts
14-Nov-20 12:23 47.454816 -122.306244 0 478ft 43kts
14-Nov-20 12:24 47.463613 -122.306376 314 478ft 0kts
14-Nov-20 12:25 47.463613 -122.306376 314 478ft 0kts
14-Nov-20 12:26 47.463612 -122.307447 232 478ft 4kts
14-Nov-20 12:27 47.457460 -122.307828 180 478ft 100kts
14-Nov-20 12:28 47.416481 -122.308644 181 1771ft 160kts
14-Nov-20 12:29 47.359902 -122.309333 179 3885ft 209kts
14-Nov-20 12:30 47.289260 -122.308423 179 5994ft 266kts
14-Nov-20 12:31 47.220638 -122.284410 148 8892ft 275kts
14-Nov-20 12:32 47.155816 -122.215345 146 9001ft 282kts
14-Nov-20 12:33 47.086988 -122.161083 166 10372ft 288kts
14-Nov-20 12:34 47.002644 -122.129514 172 12038ft 328kts
14-Nov-20 12:35 46.909479 -122.099971 173 14052ft 349kts
14-Nov-20 12:36 46.810889 -122.067791 172 16121ft 363kts
14-Nov-20 12:37 46.712596 -122.028258 170 17937ft 376kts
14-Nov-20 12:38 46.609078 -121.983631 170 19197ft 398kts
14-Nov-20 12:39 46.518507 -121.890583 110 20453ft 439kts
14-Nov-20 12:40 46.496869 -121.714380 95 21797ft 446kts
14-Nov-20 12:41 46.459626 -121.541639 115 23046ft 454kts
14-Nov-20 12:42 46.399065 -121.373182 119 23882ft 471kts
14-Nov-20 12:43 46.335702 -121.204758 122 24696ft 482kts
14-Nov-20 12:44 46.262374 -121.037305 129 25518ft 489kts
14-Nov-20 12:45 46.180626 -120.874761 126 26014ft 506kts
14-Nov-20 12:46 46.105581 -120.698685 122 26514ft 521kts
14-Nov-20 12:47 46.029726 -120.517319 122 27109ft 530kts
14-Nov-20 12:48 45.953383 -120.335588 123 27734ft 538kts
14-Nov-20 12:49 45.877422 -120.148309 117 28245ft 546kts
14-Nov-20 12:50 45.807792 -119.952148 119 28722ft 551kts
14-Nov-20 12:51 45.727602 -119.762609 125 29209ft 555kts
14-Nov-20 12:52 45.639384 -119.582784 128 29978ft 551kts
14-Nov-20 12:53 45.547997 -119.406515 128 30674ft 550kts
14-Nov-20 12:54 45.460521 -119.227250 124 31161ft 553kts
14-Nov-20 12:55 45.379478 -119.034427 118 31178ft 566kts
14-Nov-20 12:56 45.303056 -118.832012 117 31145ft 579kts
14-Nov-20 12:57 45.222634 -118.630594 121 31140ft 591kts
14-Nov-20 12:58 45.130602 -118.432854 125 31140ft 601kts
14-Nov-20 12:59 45.035533 -118.236298 123 31168ft 602kts
14-Nov-20 13:00 44.944188 -118.033671 121 31203ft 596kts
14-Nov-20 13:01 44.855329 -117.837830 121 31179ft 593kts
14-Nov-20 13:02 44.763747 -117.641311 127 31180ft 589kts
14-Nov-20 13:03 44.638241 -117.500267 150 31184ft 577kts
14-Nov-20 13:04 44.506263 -117.371136 150 31183ft 576kts
14-Nov-20 13:05 44.381908 -117.227901 134 31233ft 581kts
14-Nov-20 13:06 44.258786 -117.055254 142 31262ft 577kts
14-Nov-20 13:07 44.124482 -116.896508 143 31231ft 577kts
14-Nov-20 13:08 43.994451 -116.737907 140 31229ft 580kts
14-Nov-20 13:09 43.870540 -116.582083 140 31224ft 581kts
14-Nov-20 13:10 43.741700 -116.422710 140 31246ft 580kts
14-Nov-20 13:11 43.615918 -116.269007 142 31255ft 579kts
14-Nov-20 13:12 43.527435 -116.088071 100 31258ft 567kts
14-Nov-20 13:13 43.495156 -115.873632 91 31256ft 559kts
14-Nov-20 13:14 43.463560 -115.661139 96 31257ft 566kts
14-Nov-20 13:15 43.416194 -115.452150 97 31257ft 572kts
14-Nov-20 13:16 43.381878 -115.238708 94 31254ft 572kts
14-Nov-20 13:17 43.345024 -115.024591 97 31257ft 578kts
14-Nov-20 13:18 43.303165 -114.810390 98 31257ft 581kts
14-Nov-20 13:19 43.260901 -114.595535 97 31257ft 584kts
14-Nov-20 13:20 43.219411 -114.380139 97 31257ft 587kts
14-Nov-20 13:21 43.177253 -114.163772 98 31256ft 588kts
14-Nov-20 13:22 43.134878 -113.947409 98 31257ft 589kts
14-Nov-20 13:23 43.091476 -113.730548 98 31257ft 591kts
14-Nov-20 13:24 43.047158 -113.513982 98 31257ft 592kts
14-Nov-20 13:25 43.004664 -113.304182 99 31251ft 593kts
14-Nov-20 13:26 42.960793 -113.087114 99 31256ft 593kts
14-Nov-20 13:27 42.915776 -112.870183 99 31256ft 595kts
14-Nov-20 13:28 42.869989 -112.660862 103 31253ft 597kts
14-Nov-20 13:29 42.804873 -112.452296 109 31257ft 600kts
14-Nov-20 13:30 42.735351 -112.247809 111 31253ft 599kts
14-Nov-20 13:31 42.665991 -112.041559 110 31256ft 598kts
14-Nov-20 13:32 42.596736 -111.836602 110 31256ft 598kts
14-Nov-20 13:33 42.527333 -111.631800 110 31256ft 598kts
14-Nov-20 13:34 42.456788 -111.426493 110 31257ft 600kts
14-Nov-20 13:35 42.386863 -111.222880 111 31255ft 600kts
14-Nov-20 13:36 42.315232 -111.018476 111 31257ft 600kts
14-Nov-20 13:37 42.243408 -110.814689 111 31256ft 601kts
14-Nov-20 13:38 42.170735 -110.610533 111 31257ft 602kts
14-Nov-20 13:39 42.098520 -110.406331 110 31257ft 604kts
14-Nov-20 13:40 42.026440 -110.202869 111 31255ft 604kts
14-Nov-20 13:41 41.952390 -109.998768 112 31256ft 604kts
14-Nov-20 13:42 41.881516 -109.804007 112 31251ft 602kts
14-Nov-20 13:43 41.807020 -109.602061 112 31255ft 593kts
14-Nov-20 13:44 41.734698 -109.403590 112 31255ft 587kts
14-Nov-20 13:45 41.665454 -109.216591 113 31254ft 581kts
14-Nov-20 13:46 41.591841 -109.023350 115 31254ft 577kts
14-Nov-20 13:47 41.514354 -108.834978 114 31255ft 573kts
14-Nov-20 13:48 41.441026 -108.644674 114 31256ft 571kts
14-Nov-20 13:49 41.365454 -108.456988 116 31256ft 570kts
14-Nov-20 13:50 41.289491 -108.277108 116 31252ft 569kts
14-Nov-20 13:51 41.212787 -108.092385 115 31256ft 566kts
14-Nov-20 13:52 41.137340 -107.908642 115 31256ft 566kts
14-Nov-20 13:53 41.060442 -107.726128 116 31257ft 566kts
14-Nov-20 13:54 40.983892 -107.543680 115 31257ft 567kts
14-Nov-20 13:55 40.906548 -107.360472 116 31256ft 570kts
14-Nov-20 13:56 40.831960 -107.187168 116 31255ft 566kts
14-Nov-20 13:57 40.754194 -107.005734 117 31256ft 563kts
14-Nov-20 13:58 40.678577 -106.825087 117 31274ft 560kts
14-Nov-20 14:00 40.593835 -106.629221 123 31014ft 543kts
14-Nov-20 14:01 40.510463 -106.445395 123 31017ft 529kts
14-Nov-20 14:02 40.436203 -106.275995 122 31015ft 523kts
14-Nov-20 14:03 40.361357 -106.104721 123 31016ft 515kts
14-Nov-20 14:04 40.286709 -105.935829 123 30958ft 511kts
14-Nov-20 14:05 40.208384 -105.760449 124 30848ft 508kts
14-Nov-20 14:06 40.131100 -105.590210 124 30822ft 504kts
14-Nov-20 14:07 40.054905 -105.419047 124 30841ft 500kts
14-Nov-20 14:08 39.987394 -105.270709 124 30928ft 495kts
14-Nov-20 14:09 39.917114 -105.116750 125 30926ft 494kts
14-Nov-20 14:10 39.849178 -104.966874 125 30927ft 494kts
14-Nov-20 14:11 39.778290 -104.813617 125 30927ft 494kts
14-Nov-20 14:12 39.704355 -104.663588 134 30925ft 489kts
14-Nov-20 14:12 39.611823 -104.600326 177 30930ft 444kts
14-Nov-20 14:14 39.470063 -104.576800 183 30928ft 442kts
14-Nov-20 14:14 39.367603 -104.562854 182 30928ft 448kts
14-Nov-20 14:16 39.222455 -104.543633 182 30928ft 454kts
14-Nov-20 14:17 39.096697 -104.532149 188 30928ft 452kts
14-Nov-20 14:17 38.991535 -104.527799 186 30886ft 459kts
14-Nov-20 14:19 38.846250 -104.509006 182 30859ft 467kts
14-Nov-20 14:19 38.738127 -104.491777 183 30863ft 467kts
14-Nov-20 14:21 38.587552 -104.470571 184 30861ft 464kts
14-Nov-20 14:21 38.480757 -104.456527 184 30862ft 462kts
14-Nov-20 14:23 38.331356 -104.436501 184 30852ft 461kts
14-Nov-20 14:23 38.223488 -104.397336 163 30832ft 490kts
14-Nov-20 14:24 38.124076 -104.279939 145 30833ft 510kts
14-Nov-20 14:25 38.008385 -104.185962 164 30835ft 484kts
14-Nov-20 14:26 37.891589 -104.110197 160 30834ft 487kts
14-Nov-20 14:27 37.775127 -104.017431 155 30847ft 492kts
14-Nov-20 14:28 37.660385 -103.920484 156 30826ft 490kts
14-Nov-20 14:29 37.544653 -103.827488 157 30826ft 488kts
14-Nov-20 14:30 37.429625 -103.737112 157 30826ft 487kts
14-Nov-20 14:31 37.314854 -103.646711 157 30826ft 487kts
14-Nov-20 14:32 37.202004 -103.550806 152 30839ft 493kts
14-Nov-20 14:33 37.093629 -103.442511 150 30856ft 495kts
14-Nov-20 14:34 36.988139 -103.338049 152 30849ft 493kts
14-Nov-20 14:35 36.879859 -103.234797 153 30854ft 488kts
14-Nov-20 14:36 36.771372 -103.132215 152 30874ft 487kts
14-Nov-20 14:37 36.663238 -103.028818 152 30847ft 487kts
14-Nov-20 14:38 36.554440 -102.925131 152 30828ft 487kts
14-Nov-20 14:39 36.446325 -102.822852 153 30825ft 487kts
14-Nov-20 14:40 36.338402 -102.721120 153 30827ft 487kts
14-Nov-20 14:41 36.229966 -102.618877 152 30826ft 487kts
14-Nov-20 14:42 36.121745 -102.517165 153 30826ft 487kts
14-Nov-20 14:43 36.012764 -102.415409 153 30825ft 487kts
14-Nov-20 14:44 35.905465 -102.316307 153 30828ft 486kts
14-Nov-20 14:45 35.797296 -102.215781 153 30832ft 483kts
14-Nov-20 14:46 35.688570 -102.115054 153 30805ft 483kts
14-Nov-20 14:47 35.580622 -102.015382 154 30785ft 482kts
14-Nov-20 14:48 35.472240 -101.916530 153 30787ft 481kts
14-Nov-20 14:49 35.364541 -101.817964 153 30807ft 480kts
14-Nov-20 14:50 35.257971 -101.720638 153 30808ft 478kts
14-Nov-20 14:51 35.146529 -101.637749 161 30808ft 466kts
14-Nov-20 14:52 35.031946 -101.559320 160 30808ft 466kts
14-Nov-20 14:53 34.918268 -101.481399 160 30808ft 464kts
14-Nov-20 14:54 34.804062 -101.403451 160 30819ft 464kts
14-Nov-20 14:55 34.685815 -101.322266 160 30834ft 463kts
14-Nov-20 14:56 34.566743 -101.240846 160 30834ft 460kts
14-Nov-20 14:57 34.448146 -101.160788 160 30836ft 458kts
14-Nov-20 14:58 34.331235 -101.081625 160 30834ft 456kts
14-Nov-20 14:59 34.214104 -101.002951 160 30840ft 455kts
14-Nov-20 15:00 34.101749 -100.927085 160 30849ft 453kts
14-Nov-20 15:01 33.991157 -100.853122 160 30838ft 452kts
14-Nov-20 15:02 33.884642 -100.782082 161 30825ft 451kts
14-Nov-20 15:03 33.774656 -100.708892 161 30825ft 451kts
14-Nov-20 15:04 33.663492 -100.635185 161 30826ft 451kts
14-Nov-20 15:05 33.552656 -100.561646 160 30829ft 451kts
14-Nov-20 15:06 33.442020 -100.488835 161 30843ft 450kts
14-Nov-20 15:07 33.331409 -100.415911 161 30843ft 450kts
14-Nov-20 15:08 33.220893 -100.343249 161 30839ft 450kts
14-Nov-20 15:09 33.110970 -100.271247 162 30843ft 447kts
14-Nov-20 15:10 33.001677 -100.200024 162 30884ft 444kts
14-Nov-20 15:11 32.894860 -100.130370 162 30902ft 442kts
14-Nov-20 15:12 32.786622 -100.060478 162 30895ft 442kts
14-Nov-20 15:13 32.676463 -99.997668 162 30880ft 441kts
14-Nov-20 15:14 32.591314 -99.882686 130 30851ft 490kts
14-Nov-20 15:15 32.490478 -99.802062 171 30834ft 426kts
14-Nov-20 15:16 32.378809 -99.753161 171 30846ft 426kts
14-Nov-20 15:17 32.266506 -99.704210 171 30855ft 427kts
14-Nov-20 15:18 32.153712 -99.677843 174 30856ft 422kts
14-Nov-20 15:19 32.041496 -99.625785 173 30851ft 424kts
14-Nov-20 15:20 31.927552 -99.587491 175 30853ft 421kts
14-Nov-20 15:21 31.816428 -99.546690 171 30855ft 428kts
14-Nov-20 15:22 31.703599 -99.493297 167 30880ft 437kts
14-Nov-20 15:23 31.592662 -99.431614 164 30881ft 442kts
14-Nov-20 15:24 31.481738 -99.367836 165 30880ft 442kts
14-Nov-20 15:25 31.386373 -99.265500 145 30881ft 471kts
14-Nov-20 15:26 31.287412 -99.171113 158 30880ft 448kts
14-Nov-20 15:27 31.180886 -99.097798 162 30880ft 441kts
14-Nov-20 15:28 31.073935 -99.029013 162 29909ft 429kts
14-Nov-20 15:29 30.971935 -98.958701 155 27667ft 428kts
14-Nov-20 15:30 30.886617 -98.862685 141 25525ft 435kts
14-Nov-20 15:31 30.830987 -98.735665 109 23409ft 454kts
14-Nov-20 15:32 30.798590 -98.595158 117 21406ft 436kts
14-Nov-20 15:33 30.756802 -98.464071 104 19456ft 430kts
14-Nov-20 15:34 30.751777 -98.325676 93 17567ft 422kts
14-Nov-20 15:35 30.742213 -98.191284 100 15681ft 407kts
14-Nov-20 15:36 30.727633 -98.065595 102 12787ft 382kts
14-Nov-20 15:37 30.678057 -97.963902 134 11093ft 354kts
14-Nov-20 15:38 30.614369 -97.880674 137 10001ft 321kts
14-Nov-20 15:39 30.557596 -97.811436 140 9635ft 278kts
14-Nov-20 15:40 30.505412 -97.744941 135 8262ft 280kts
14-Nov-20 15:41 30.488165 -97.657646 89 6939ft 298kts
14-Nov-20 15:42 30.496879 -97.562459 88 5713ft 292kts
14-Nov-20 15:43 30.545030 -97.503276 343 4983ft 268kts
14-Nov-20 15:44 30.574001 -97.568255 255 4996ft 231kts
14-Nov-20 15:45 30.531746 -97.615492 213 4988ft 202kts
14-Nov-20 15:46 30.488344 -97.649611 213 4992ft 180kts
14-Nov-20 15:47 30.444137 -97.664710 180 4557ft 162kts
14-Nov-20 15:48 30.402095 -97.662487 183 3982ft 145kts
14-Nov-20 15:49 30.360786 -97.662062 180 3151ft 150kts
14-Nov-20 15:50 30.319566 -97.660590 177 2452ft 145kts
14-Nov-20 15:51 30.283015 -97.659854 180 2082ft 133kts
14-Nov-20 15:52 30.244941 -97.659116 179 1354ft 138kts
14-Nov-20 15:53 30.207266 -97.657961 179 611ft 133kts
14-Nov-20 15:54 30.188123 -97.658627 259 486ft 0kts
14-Nov-20 15:56 30.188123 -97.658627 259 486ft 0kts
14-Nov-20 15:57 30.190735 -97.658835 358 488ft 21kts
14-Nov-20 15:58 30.198159 -97.659011 358 494ft 24kts
14-Nov-20 15:59 30.199136 -97.662560 267 500ft 16kts
14-Nov-20 16:00 30.201091 -97.664543 267 506ft 8kts
14-Nov-20 16:01 30.201766 -97.665026 353 506ft 0kts
14-Nov-20 16:02 30.201768 -97.665026 353 506ft 0kts
14-Nov-20 16:03 30.226185 -97.658438 179 973ft 136kts
14-Nov-20 16:04 30.191428 -97.657603 179 487ft 65kts
14-Nov-20 16:05 30.222088 -97.658325 180 891ft 134kts
14-Nov-20 16:06 30.189895 -97.657642 183 487ft 39kts
14-Nov-20 16:07 30.208575 -97.658001 179 635ft 133kts
14-Nov-20 16:08 30.188123 -97.658627 259 486ft 0kts
14-Nov-20 16:09 30.188123 -97.658627 259 486ft 0kts

Navigation Log

Ident Type
Flight plan parsing failed, navigation log unavailable